Time;durP1;ratioP1;P1;durP2;ratioP2;P2;SDS_P1;SDS_P2;PMS_P1;PMS_P2;Temp;Humidity;BMP_temperature;BMP_pressure;BME280_temperature;BME280_humidity;BME280_pressure;Samples;Min_cycle;Max_cycle;Signal;HPM_P1;HPM_P2
2023/11/12 00:00:21;;;;;;;13.87;5.37;;;5.70;99.90;;;;;;5032813;28;20092;-53
2023/11/12 00:02:47;;;;;;;9.97;4.97;;;5.70;99.90;;;;;;5032962;28;20048;-52
2023/11/12 00:05:12;;;;;;;12.03;5.20;;;5.70;99.90;;;;;;5033323;28;20028;-57
2023/11/12 00:07:38;;;;;;;9.73;4.90;;;5.70;99.90;;;;;;5032736;28;20503;-52
2023/11/12 00:10:04;;;;;;;9.63;5.10;;;5.70;99.90;;;;;;5032786;28;20064;-52
2023/11/12 00:12:29;;;;;;;12.33;4.90;;;5.70;99.90;;;;;;5033330;28;20029;-54
2023/11/12 00:14:55;;;;;;;10.57;5.00;;;5.70;99.90;;;;;;5033145;28;20104;-52
2023/11/12 00:17:21;;;;;;;11.30;4.73;;;5.70;99.90;;;;;;5032917;28;20026;-48
2023/11/12 00:19:47;;;;;;;11.67;5.37;;;5.70;99.90;;;;;;5031112;28;20175;-51
2023/11/12 00:22:13;;;;;;;12.60;5.27;;;5.70;99.90;;;;;;5032557;28;20108;-53
2023/11/12 00:24:39;;;;;;;12.80;5.50;;;5.80;99.90;;;;;;5032876;28;20025;-50
2023/11/12 00:27:05;;;;;;;12.43;5.23;;;5.80;99.90;;;;;;5032480;28;20065;-54
2023/11/12 00:29:31;;;;;;;9.47;4.50;;;5.80;99.90;;;;;;5031214;28;20029;-53
2023/11/12 00:31:57;;;;;;;11.27;5.50;;;5.80;99.90;;;;;;5032474;28;20482;-53
2023/11/12 00:34:23;;;;;;;10.77;5.03;;;5.80;99.90;;;;;;5031788;28;20033;-53
2023/11/12 00:36:49;;;;;;;11.40;4.73;;;5.80;99.90;;;;;;5032789;28;20033;-55
2023/11/12 00:39:15;;;;;;;10.60;5.27;;;5.80;99.90;;;;;;5032534;28;20034;-54
2023/11/12 00:41:41;;;;;;;10.67;5.30;;;5.80;99.90;;;;;;5031492;28;20029;-53
2023/11/12 00:44:10;;;;;;;10.80;5.27;;;5.90;99.90;;;;;;5031784;28;20030;-50
2023/11/12 00:46:40;;;;;;;9.10;4.90;;;5.80;99.90;;;;;;5031582;28;20036;-52
2023/11/12 00:49:06;;;;;;;15.60;5.90;;;5.80;99.90;;;;;;5032242;28;20030;-54
2023/11/12 00:51:33;;;;;;;13.67;5.20;;;5.70;99.90;;;;;;5032503;28;20025;-53
2023/11/12 00:53:58;;;;;;;8.00;4.60;;;5.60;99.90;;;;;;5031111;28;20061;-53
2023/11/12 00:56:24;;;;;;;10.40;5.10;;;5.70;99.90;;;;;;5031532;28;20076;-54
2023/11/12 00:58:50;;;;;;;11.77;5.40;;;5.70;99.90;;;;;;5030833;28;20049;-50
2023/11/12 01:01:15;;;;;;;9.03;4.13;;;5.70;99.90;;;;;;5031474;28;20167;-54
2023/11/12 01:03:41;;;;;;;11.10;5.40;;;5.60;99.90;;;;;;5032283;28;20025;-51
2023/11/12 01:06:07;;;;;;;11.10;5.13;;;5.70;99.90;;;;;;5030907;28;20289;-54
2023/11/12 01:08:32;;;;;;;12.67;5.43;;;5.70;99.90;;;;;;5030603;28;20034;-53
2023/11/12 01:10:58;;;;;;;12.77;5.50;;;5.70;99.90;;;;;;5032207;28;20025;-49
2023/11/12 01:13:24;;;;;;;11.57;5.00;;;5.60;99.90;;;;;;5030878;28;20474;-51
2023/11/12 01:15:51;;;;;;;11.60;5.07;;;5.60;99.90;;;;;;5030565;28;20557;-50
2023/11/12 01:18:17;;;;;;;10.87;5.97;;;5.60;99.90;;;;;;5030123;28;20083;-50
2023/11/12 01:20:43;;;;;;;11.60;5.33;;;5.60;99.90;;;;;;5030653;28;20029;-50
2023/11/12 01:23:09;;;;;;;12.27;5.70;;;5.60;99.90;;;;;;5030345;28;20048;-52
2023/11/12 01:25:35;;;;;;;13.20;5.23;;;5.60;99.90;;;;;;5031822;28;20037;-52
2023/11/12 01:28:02;;;;;;;10.17;5.57;;;5.60;99.90;;;;;;5031740;28;20029;-53
2023/11/12 01:30:28;;;;;;;12.00;5.50;;;5.60;99.90;;;;;;5030254;28;20041;-53
2023/11/12 01:32:54;;;;;;;9.10;5.23;;;5.60;99.90;;;;;;5029982;28;20383;-50
2023/11/12 01:35:19;;;;;;;9.97;5.27;;;5.70;99.90;;;;;;5031420;28;20140;-53
2023/11/12 01:37:45;;;;;;;11.70;5.67;;;5.70;99.90;;;;;;5030024;28;20099;-49
2023/11/12 01:40:16;;;;;;;10.83;5.30;;;5.70;99.90;;;;;;5030058;28;20085;-51
2023/11/12 01:42:42;;;;;;;12.17;5.27;;;5.70;99.90;;;;;;5031816;28;20048;-53
2023/11/12 01:45:09;;;;;;;11.83;5.00;;;5.80;99.90;;;;;;5017146;28;20037;-52
2023/11/12 01:47:40;;;;;;;10.03;5.00;;;5.70;99.90;;;;;;5035566;28;20112;-53
2023/11/12 01:50:09;;;;;;;9.80;5.10;;;5.80;99.90;;;;;;5034276;28;20048;-54
2023/11/12 01:52:37;;;;;;;10.17;5.33;;;5.80;99.90;;;;;;5034398;28;20033;-55
2023/11/12 01:55:06;;;;;;;10.95;5.22;;;5.80;99.90;;;;;;5035791;28;20030;-54
2023/11/12 01:57:34;;;;;;;10.43;4.77;;;5.70;99.90;;;;;;5034244;28;20037;-51
2023/11/12 02:00:02;;;;;;;12.77;5.10;;;5.70;99.90;;;;;;5033947;28;20036;-52
2023/11/12 02:02:39;;;;;;;12.23;5.35;;;5.70;99.90;;;;;;5034141;28;20417;-49
2023/11/12 02:05:08;;;;;;;10.40;5.40;;;5.60;99.90;;;;;;5034019;28;20037;-52
2023/11/12 02:07:37;;;;;;;12.20;5.73;;;5.70;99.90;;;;;;5033827;28;20033;-54
2023/11/12 02:10:09;;;;;;;10.70;5.27;;;5.70;99.90;;;;;;5033620;28;20029;-53
2023/11/12 02:12:43;;;;;;;11.73;5.27;;;5.70;99.90;;;;;;5034239;28;20040;-53
2023/11/12 02:15:09;;;;;;;13.43;5.87;;;5.60;99.90;;;;;;5034036;28;20513;-52
2023/11/12 02:17:35;;;;;;;9.13;4.87;;;5.70;99.90;;;;;;5033838;28;20036;-55
2023/11/12 02:20:07;;;;;;;10.97;5.37;;;5.70;99.90;;;;;;5033667;28;20021;-53
2023/11/12 02:22:36;;;;;;;11.83;5.17;;;5.80;99.90;;;;;;5035193;28;20037;-51
2023/11/12 02:25:02;;;;;;;9.73;5.32;;;5.80;99.90;;;;;;5034096;28;20486;-52
2023/11/12 02:27:28;;;;;;;15.00;6.20;;;5.70;99.90;;;;;;5033757;28;20072;-50
2023/11/12 02:29:53;;;;;;;11.13;5.67;;;5.70;99.90;;;;;;5033192;28;20076;-53
2023/11/12 02:32:20;;;;;;;11.60;5.87;;;5.70;99.90;;;;;;5033314;28;20030;-53
2023/11/12 02:34:46;;;;;;;15.43;5.93;;;5.70;99.90;;;;;;5033426;28;20131;-52
2023/11/12 02:37:12;;;;;;;11.57;6.13;;;5.70;99.90;;;;;;5032959;28;20093;-50
2023/11/12 02:39:41;;;;;;;12.00;5.60;;;5.60;99.90;;;;;;5033415;28;20033;-51
2023/11/12 02:42:09;;;;;;;16.15;6.15;;;5.60;99.90;;;;;;5033756;28;20605;-52
2023/11/12 02:44:36;;;;;;;14.87;4.80;;;5.50;99.90;;;;;;5033261;28;20057;-51
2023/11/12 02:47:04;;;;;;;8.70;4.60;;;5.50;99.90;;;;;;5033236;28;20522;-49
2023/11/12 02:50:00;;;;;;;13.07;5.47;;;5.50;99.90;;;;;;5034535;28;20572;-49
2023/11/12 02:52:26;;;;;;;9.70;4.63;;;5.50;99.90;;;;;;5033335;28;20533;-54
2023/11/12 02:54:51;;;;;;;10.40;5.20;;;5.50;99.90;;;;;;5032809;28;20056;-49
2023/11/12 02:57:21;;;;;;;12.13;5.73;;;5.50;99.90;;;;;;5034349;28;20222;-49
2023/11/12 02:59:48;;;;;;;9.93;5.65;;;5.40;99.90;;;;;;5033121;28;20500;-52
2023/11/12 03:02:13;;;;;;;13.10;5.50;;;5.30;99.90;;;;;;5033209;28;20494;-55
2023/11/12 03:04:39;;;;;;;10.50;5.40;;;5.30;99.90;;;;;;5033233;28;20021;-51
2023/11/12 03:07:05;;;;;;;10.33;5.53;;;5.30;99.90;;;;;;5034231;28;20498;-50
2023/11/12 03:09:30;;;;;;;9.53;5.03;;;5.20;99.90;;;;;;5032868;28;20036;-51
2023/11/12 03:11:56;;;;;;;13.57;6.30;;;5.20;99.90;;;;;;5034496;28;20442;-55
2023/11/12 03:14:22;;;;;;;10.90;5.80;;;5.20;99.90;;;;;;5033120;28;20065;-51
2023/11/12 03:16:51;;;;;;;10.40;5.53;;;5.10;99.90;;;;;;5034260;28;20083;-55
2023/11/12 03:19:16;;;;;;;13.43;5.63;;;5.20;99.90;;;;;;5032436;28;20028;-49
2023/11/12 03:21:46;;;;;;;9.73;5.30;;;5.20;99.90;;;;;;5034091;28;20464;-51
2023/11/12 03:24:12;;;;;;;11.70;5.43;;;5.20;99.90;;;;;;5032903;28;20457;-50
2023/11/12 03:26:38;;;;;;;8.77;4.70;;;5.10;99.90;;;;;;5034084;28;20090;-50
2023/11/12 03:29:04;;;;;;;11.57;5.73;;;5.10;99.90;;;;;;5033201;28;20041;-50
2023/11/12 03:31:30;;;;;;;11.30;5.47;;;5.10;99.90;;;;;;5032656;28;20032;-50
2023/11/12 03:33:56;;;;;;;17.07;5.30;;;5.10;99.90;;;;;;5033829;28;20033;-50
2023/11/12 03:36:21;;;;;;;14.77;5.93;;;5.00;99.90;;;;;;5033902;28;20032;-50
2023/11/12 03:38:48;;;;;;;10.27;4.93;;;5.00;99.90;;;;;;5033119;28;20026;-49
2023/11/12 03:41:15;;;;;;;9.87;5.00;;;5.00;99.90;;;;;;5032346;28;20025;-52
2023/11/12 03:43:40;;;;;;;13.10;5.90;;;4.90;99.90;;;;;;5033986;28;20331;-48
2023/11/12 03:46:07;;;;;;;11.83;4.97;;;4.90;99.90;;;;;;5032436;28;20537;-51
2023/11/12 03:48:33;;;;;;;11.13;5.40;;;4.90;99.90;;;;;;5031798;28;20033;-53
2023/11/12 03:50:59;;;;;;;10.77;5.70;;;4.90;99.90;;;;;;5031771;28;20041;-49
2023/11/12 03:53:24;;;;;;;9.83;5.40;;;4.80;99.90;;;;;;5031748;28;20087;-50
2023/11/12 03:55:50;;;;;;;11.40;5.43;;;4.80;99.90;;;;;;5032027;28;20036;-53
2023/11/12 03:58:16;;;;;;;12.87;5.97;;;4.80;99.90;;;;;;5030913;28;20030;-51
2023/11/12 04:00:41;;;;;;;13.17;5.47;;;4.80;99.90;;;;;;5032487;28;20422;-52
2023/11/12 04:03:07;;;;;;;11.80;6.10;;;4.80;99.90;;;;;;5032240;28;20053;-54
2023/11/12 04:05:33;;;;;;;11.20;5.43;;;4.80;99.90;;;;;;5032451;28;20112;-53
2023/11/12 04:07:59;;;;;;;12.97;6.10;;;4.70;99.90;;;;;;5031529;28;20033;-53
2023/11/12 04:10:24;;;;;;;11.10;5.00;;;4.70;99.90;;;;;;5031659;28;20109;-51
2023/11/12 04:12:50;;;;;;;11.40;5.00;;;4.70;99.90;;;;;;5032933;28;20395;-49
2023/11/12 04:15:16;;;;;;;11.23;5.40;;;4.60;99.90;;;;;;5032009;28;20151;-52
2023/11/12 04:17:41;;;;;;;11.43;4.97;;;4.60;99.90;;;;;;5031578;28;20091;-50
2023/11/12 04:20:09;;;;;;;12.67;5.73;;;4.70;99.90;;;;;;5032629;28;20033;-53
2023/11/12 04:22:36;;;;;;;10.13;5.23;;;4.80;99.90;;;;;;5032035;28;20437;-53
2023/11/12 04:25:03;;;;;;;12.13;5.07;;;4.70;99.90;;;;;;5031804;28;20112;-50
2023/11/12 04:27:30;;;;;;;13.07;5.90;;;4.70;99.90;;;;;;5015306;28;20039;-54
2023/11/12 04:29:56;;;;;;;9.80;4.97;;;4.80;99.90;;;;;;5031483;28;20099;-52
2023/11/12 04:32:22;;;;;;;10.50;5.20;;;4.80;99.90;;;;;;5033175;28;20041;-49
2023/11/12 04:34:47;;;;;;;13.70;6.00;;;4.90;99.90;;;;;;5031622;28;20072;-53
2023/11/12 04:37:13;;;;;;;13.20;5.83;;;4.80;99.90;;;;;;5033198;28;20029;-54
2023/11/12 04:39:40;;;;;;;11.73;5.30;;;4.90;99.90;;;;;;5032752;28;20033;-52
2023/11/12 04:42:06;;;;;;;10.83;5.07;;;5.00;99.90;;;;;;5032731;28;20390;-54
2023/11/12 04:44:32;;;;;;;10.10;4.70;;;5.00;99.90;;;;;;5032882;28;20034;-52
2023/11/12 04:46:58;;;;;;;12.90;4.80;;;5.00;99.90;;;;;;5032808;28;20039;-54
2023/11/12 04:49:26;;;;;;;11.07;4.90;;;5.00;99.90;;;;;;5032044;28;20077;-54
2023/11/12 04:51:53;;;;;;;9.17;5.17;;;5.10;99.90;;;;;;5033188;28;20029;-53
2023/11/12 04:54:19;;;;;;;9.33;4.67;;;5.10;99.90;;;;;;5033345;28;20049;-51
2023/11/12 04:56:48;;;;;;;9.60;4.97;;;5.10;99.90;;;;;;5032819;28;20586;-54
2023/11/12 04:59:15;;;;;;;12.05;5.45;;;5.10;99.90;;;;;;5032463;28;20041;-51
2023/11/12 05:01:40;;;;;;;9.37;4.67;;;5.20;99.90;;;;;;5033043;28;20026;-52
2023/11/12 05:04:06;;;;;;;9.63;4.20;;;5.20;99.90;;;;;;5032587;28;20045;-52
2023/11/12 05:06:32;;;;;;;8.67;4.80;;;5.20;99.90;;;;;;5032731;28;20039;-50
2023/11/12 05:08:58;;;;;;;10.17;4.37;;;5.20;99.90;;;;;;5032106;28;20060;-50
2023/11/12 05:11:24;;;;;;;10.63;4.47;;;5.20;99.90;;;;;;5032502;28;20030;-49
2023/11/12 05:13:50;;;;;;;9.87;4.73;;;5.20;99.90;;;;;;5032575;28;20033;-55
2023/11/12 05:16:15;;;;;;;10.47;4.23;;;5.20;99.90;;;;;;5032269;28;20025;-55
2023/11/12 05:18:41;;;;;;;10.33;4.63;;;5.20;99.90;;;;;;5032951;28;20474;-52
2023/11/12 05:21:06;;;;;;;10.13;4.77;;;5.10;99.90;;;;;;5035218;28;20029;-51
2023/11/12 05:23:33;;;;;;;12.77;4.67;;;5.20;99.90;;;;;;5036570;28;20486;-50
2023/11/12 05:26:00;;;;;;;8.70;4.47;;;5.10;99.90;;;;;;5036495;28;20175;-52
2023/11/12 05:28:27;;;;;;;9.57;4.80;;;5.20;99.90;;;;;;5034735;28;20037;-50
2023/11/12 05:30:52;;;;;;;10.47;4.17;;;5.20;99.90;;;;;;5036377;28;20041;-52
2023/11/12 05:33:22;;;;;;;8.27;4.13;;;5.20;99.90;;;;;;5035293;28;20033;-54
2023/11/12 05:35:48;;;;;;;10.07;4.75;;;5.20;99.90;;;;;;5036308;28;20099;-51
2023/11/12 05:38:14;;;;;;;9.53;4.83;;;5.20;99.90;;;;;;5035954;28;20441;-54
2023/11/12 05:40:40;;;;;;;11.93;4.70;;;5.20;99.90;;;;;;5035792;28;20121;-54
2023/11/12 05:43:06;;;;;;;8.40;4.83;;;5.20;99.90;;;;;;5035908;28;20033;-53
2023/11/12 05:45:32;;;;;;;8.40;4.90;;;5.20;99.90;;;;;;5036023;28;20096;-53
2023/11/12 05:47:57;;;;;;;9.63;4.60;;;5.20;99.90;;;;;;5034089;28;20037;-51
2023/11/12 05:50:24;;;;;;;11.70;4.87;;;5.20;99.90;;;;;;5036036;28;20052;-53
2023/11/12 05:52:50;;;;;;;10.57;4.47;;;5.30;99.90;;;;;;5036121;28;20533;-50
2023/11/12 05:55:16;;;;;;;10.57;5.00;;;5.20;99.90;;;;;;5035848;28;20405;-54
2023/11/12 05:57:41;;;;;;;11.63;5.43;;;5.20;99.90;;;;;;5034219;28;20033;-55
2023/11/12 06:00:08;;;;;;;11.67;5.00;;;5.20;99.90;;;;;;5035462;28;20084;-53
2023/11/12 06:02:38;;;;;;;10.07;4.60;;;5.20;99.90;;;;;;5035969;28;20506;-52
2023/11/12 06:05:05;;;;;;;10.03;4.70;;;5.10;99.90;;;;;;5035760;28;20112;-54
2023/11/12 06:07:31;;;;;;;11.60;4.83;;;5.10;99.90;;;;;;5034204;28;20035;-52
2023/11/12 06:09:57;;;;;;;9.20;4.90;;;5.10;99.90;;;;;;5035335;28;20044;-49
2023/11/12 06:12:22;;;;;;;8.27;4.17;;;5.10;99.90;;;;;;5035854;28;20390;-50
2023/11/12 06:14:48;;;;;;;7.50;3.93;;;5.20;99.90;;;;;;5033742;28;20029;-49
2023/11/12 06:17:14;;;;;;;12.17;5.27;;;5.20;99.90;;;;;;5034988;28;20029;-50
2023/11/12 06:19:39;;;;;;;8.77;4.33;;;5.10;99.90;;;;;;5034794;28;20087;-49
2023/11/12 06:22:05;;;;;;;8.77;4.23;;;5.10;99.90;;;;;;5034766;28;20037;-50
2023/11/12 06:24:31;;;;;;;8.70;4.63;;;5.10;99.90;;;;;;5034789;28;20069;-50
2023/11/12 06:26:57;;;;;;;14.03;5.20;;;5.20;99.90;;;;;;5034887;28;20429;-50
2023/11/12 06:29:23;;;;;;;10.37;4.50;;;5.30;99.90;;;;;;5034199;28;20129;-50
2023/11/12 06:31:50;;;;;;;9.10;4.93;;;5.30;99.90;;;;;;5033719;28;20029;-49
2023/11/12 06:34:15;;;;;;;10.23;4.30;;;5.30;99.90;;;;;;5034638;28;20104;-50
2023/11/12 06:36:41;;;;;;;9.07;4.37;;;5.30;99.90;;;;;;5034509;28;20038;-54
2023/11/12 06:39:06;;;;;;;8.83;4.30;;;5.30;99.90;;;;;;5034074;28;20048;-53
2023/11/12 06:41:33;;;;;;;9.63;4.63;;;5.30;99.90;;;;;;5033531;28;20032;-50
2023/11/12 06:43:59;;;;;;;8.67;4.43;;;5.20;99.90;;;;;;5034322;28;20040;-52
2023/11/12 06:46:25;;;;;;;9.70;4.20;;;5.10;99.90;;;;;;5032988;28;20041;-52
2023/11/12 06:48:51;;;;;;;7.80;4.00;;;5.20;99.90;;;;;;5034073;28;20064;-51
2023/11/12 06:51:21;;;;;;;9.03;4.03;;;5.20;99.90;;;;;;5034202;28;20068;-54
2023/11/12 06:53:47;;;;;;;9.13;4.03;;;5.30;99.90;;;;;;5034015;28;20026;-54
2023/11/12 06:56:12;;;;;;;7.57;4.40;;;5.30;99.90;;;;;;5033969;28;20024;-52
2023/11/12 06:58:40;;;;;;;8.67;4.07;;;5.30;99.90;;;;;;5033749;28;20539;-51
2023/11/12 07:01:05;;;;;;;8.87;4.07;;;5.30;99.90;;;;;;5034123;28;20518;-51
2023/11/12 07:03:31;;;;;;;7.90;4.33;;;5.30;99.90;;;;;;5033717;28;20068;-50
2023/11/12 07:05:57;;;;;;;9.87;4.10;;;5.20;99.90;;;;;;5034044;28;20048;-49
2023/11/12 07:08:23;;;;;;;9.47;4.00;;;5.20;99.90;;;;;;5033288;28;20053;-48
2023/11/12 07:10:48;;;;;;;9.10;4.20;;;5.30;99.90;;;;;;5032380;28;20091;-51
2023/11/12 07:13:15;;;;;;;7.93;3.93;;;5.30;99.90;;;;;;5033481;28;20039;-50
2023/11/12 07:15:43;;;;;;;8.07;3.47;;;5.40;99.90;;;;;;5033617;28;20021;-50
2023/11/12 07:18:10;;;;;;;8.37;4.10;;;5.40;99.90;;;;;;5033233;28;20108;-49
2023/11/12 07:20:37;;;;;;;7.60;3.70;;;5.40;99.90;;;;;;5033258;28;20033;-49
2023/11/12 07:23:02;;;;;;;8.33;3.87;;;5.40;99.90;;;;;;5033718;28;20072;-52
2023/11/12 07:25:28;;;;;;;8.50;4.17;;;5.40;99.90;;;;;;5033456;28;20056;-51
2023/11/12 07:27:54;;;;;;;7.17;3.67;;;5.40;99.90;;;;;;5034284;28;20033;-53
2023/11/12 07:30:20;;;;;;;8.30;4.30;;;5.50;99.90;;;;;;5033578;28;20036;-49
2023/11/12 07:32:45;;;;;;;8.63;3.67;;;5.50;99.90;;;;;;5034168;28;20030;-55
2023/11/12 07:35:13;;;;;;;6.63;3.73;;;5.50;99.90;;;;;;5033608;28;20409;-51
2023/11/12 07:37:41;;;;;;;7.20;3.40;;;5.60;99.90;;;;;;5033498;28;20025;-52
2023/11/12 07:40:10;;;;;;;7.47;3.43;;;5.60;99.90;;;;;;5033690;28;20030;-52
2023/11/12 07:42:38;;;;;;;;;;;5.60;99.90;;;;;;5033657;28;20039;-49
2023/11/12 07:45:08;;;;;;;6.33;3.07;;;5.60;99.90;;;;;;5033813;28;19909;-52
2023/11/12 07:47:35;;;;;;;8.57;3.53;;;5.60;99.90;;;;;;5033399;28;20472;-53
2023/11/12 07:50:02;;;;;;;6.97;3.07;;;5.60;99.90;;;;;;5033382;28;20060;-50
2023/11/12 07:52:28;;;;;;;10.93;3.90;;;5.60;99.90;;;;;;5033613;28;20446;-50
2023/11/12 07:54:54;;;;;;;5.77;3.43;;;5.60;99.90;;;;;;5033445;28;20120;-49
2023/11/12 07:57:20;;;;;;;7.53;3.20;;;5.60;99.90;;;;;;5033665;28;20127;-50
2023/11/12 07:59:45;;;;;;;5.93;2.87;;;5.60;99.90;;;;;;5032184;28;20061;-55
2023/11/12 08:02:11;;;;;;;6.23;2.80;;;5.70;99.90;;;;;;5033562;28;20541;-50
2023/11/12 08:04:37;;;;;;;5.37;2.60;;;5.80;99.90;;;;;;5033344;28;20025;-50
2023/11/12 08:07:03;;;;;;;6.17;3.47;;;5.80;99.90;;;;;;5033146;28;20033;-50
2023/11/12 08:09:28;;;;;;;6.60;3.10;;;5.90;99.90;;;;;;5033540;28;20068;-50
2023/11/12 08:11:54;;;;;;;6.33;3.20;;;5.90;99.90;;;;;;5032110;28;20390;-50
2023/11/12 08:14:19;;;;;;;6.47;3.03;;;6.00;99.90;;;;;;5031785;28;20125;-49
2023/11/12 08:16:45;;;;;;;5.17;3.23;;;6.00;99.90;;;;;;5033810;28;20029;-56
2023/11/12 08:19:10;;;;;;;5.13;3.07;;;6.00;99.90;;;;;;5031418;28;20167;-49
2023/11/12 08:21:36;;;;;;;5.97;2.87;;;6.10;99.90;;;;;;5032862;28;20026;-49
2023/11/12 08:24:03;;;;;;;7.07;2.47;;;6.20;99.90;;;;;;5031428;28;20045;-48
2023/11/12 08:26:29;;;;;;;4.87;2.87;;;6.30;99.90;;;;;;5032895;28;20039;-50
2023/11/12 08:28:57;;;;;;;4.73;2.43;;;6.40;99.90;;;;;;5032359;28;20044;-48
2023/11/12 08:31:24;;;;;;;4.97;2.80;;;6.40;99.90;;;;;;5032795;28;20029;-51
2023/11/12 08:33:49;;;;;;;4.73;2.20;;;6.50;99.90;;;;;;5031340;28;20079;-55
2023/11/12 08:36:15;;;;;;;4.40;2.53;;;6.60;99.90;;;;;;5032824;28;20445;-53
2023/11/12 08:38:41;;;;;;;4.40;2.07;;;6.70;99.90;;;;;;5032357;28;20021;-51
2023/11/12 08:41:08;;;;;;;4.60;2.13;;;6.90;99.90;;;;;;5032471;28;20435;-55
2023/11/12 08:43:34;;;;;;;3.03;2.03;;;7.10;99.90;;;;;;5032886;28;20038;-52
2023/11/12 08:45:59;;;;;;;5.57;2.20;;;7.20;99.90;;;;;;5033304;28;20440;-55
2023/11/12 08:48:31;;;;;;;4.13;1.83;;;7.30;99.90;;;;;;5031838;28;20029;-53
2023/11/12 08:50:58;;;;;;;5.43;2.07;;;7.40;99.90;;;;;;5032455;28;20091;-50
2023/11/12 08:53:24;;;;;;;7.10;2.10;;;7.40;99.90;;;;;;5030335;28;20425;-51
2023/11/12 08:55:50;;;;;;;3.67;2.17;;;7.60;99.90;;;;;;5032658;28;20025;-53
2023/11/12 08:58:15;;;;;;;3.50;1.67;;;7.90;99.90;;;;;;5032084;28;20036;-49
2023/11/12 09:00:41;;;;;;;4.17;2.17;;;8.60;99.90;;;;;;5032588;28;20025;-51
2023/11/12 09:03:07;;;;;;;8.87;3.40;;;9.10;99.90;;;;;;5032241;28;20034;-55
2023/11/12 09:05:34;;;;;;;5.80;2.50;;;9.70;99.90;;;;;;5031989;28;20641;-54
2023/11/12 09:07:59;;;;;;;5.03;1.83;;;10.20;99.90;;;;;;5032287;28;20036;-53
2023/11/12 09:10:25;;;;;;;3.20;1.60;;;10.70;99.90;;;;;;5032385;28;20120;-52
2023/11/12 09:12:50;;;;;;;4.83;1.80;;;11.50;99.90;;;;;;5030933;28;20047;-52
2023/11/12 09:15:16;;;;;;;4.63;1.83;;;12.60;99.90;;;;;;5032476;28;20535;-51
2023/11/12 09:17:42;;;;;;;3.30;1.70;;;13.10;99.90;;;;;;5031547;28;20025;-51
2023/11/12 09:20:13;;;;;;;3.28;1.73;;;13.80;99.90;;;;;;5031582;28;20037;-51
2023/11/12 09:22:40;;;;;;;4.35;1.55;;;15.00;99.90;;;;;;5031817;28;20040;-52
2023/11/12 09:25:06;;;;;;;2.00;1.33;;;16.10;99.20;;;;;;5031178;28;20025;-52
2023/11/12 09:27:32;;;;;;;3.15;1.65;;;16.80;98.60;;;;;;5031379;28;20087;-51
2023/11/12 09:29:59;;;;;;;3.83;2.10;;;16.90;97.20;;;;;;5031520;28;20515;-50
2023/11/12 09:32:25;;;;;;;3.55;1.70;;;16.70;97.30;;;;;;5031487;28;20034;-54
2023/11/12 09:34:50;;;;;;;2.53;1.40;;;17.20;97.40;;;;;;5031368;28;20083;-52
2023/11/12 09:37:16;;;;;;;4.07;1.92;;;17.60;95.70;;;;;;5031290;28;20060;-51
2023/11/12 09:39:41;;;;;;;3.15;1.75;;;17.70;95.80;;;;;;5030940;28;20023;-52
2023/11/12 09:42:12;;;;;;;3.20;1.70;;;17.90;94.10;;;;;;5013528;28;20060;-51
2023/11/12 09:44:38;;;;;;;3.30;1.67;;;17.50;94.40;;;;;;5031514;28;20129;-49
2023/11/12 09:47:20;;;;;;;3.78;1.77;;;17.60;94.00;;;;;;5030599;28;20084;-49
2023/11/12 09:49:47;;;;;;;3.92;1.90;;;17.20;94.30;;;;;;5030947;28;20509;-50
2023/11/12 09:52:13;;;;;;;3.72;1.52;;;17.00;94.60;;;;;;5031232;28;20044;-50
2023/11/12 09:54:40;;;;;;;2.47;1.55;;;16.90;94.80;;;;;;5030866;28;20099;-55
2023/11/12 09:57:06;;;;;;;4.00;1.70;;;16.70;95.10;;;;;;5030761;28;20379;-49
2023/11/12 09:59:32;;;;;;;4.85;1.98;;;16.80;95.10;;;;;;5030376;28;20068;-50
2023/11/12 10:01:58;;;;;;;4.05;2.40;;;17.10;94.70;;;;;;5030616;28;20069;-53
2023/11/12 10:04:23;;;;;;;2.38;1.30;;;17.30;94.30;;;;;;5030622;28;20041;-55
2023/11/12 10:06:50;;;;;;;2.53;1.40;;;17.70;93.80;;;;;;5033954;28;20100;-52
2023/11/12 10:09:29;;;;;;;3.65;1.90;;;17.90;94.20;;;;;;5033826;28;20026;-52
2023/11/12 10:12:03;;;;;;;;;;;18.60;93.20;;;;;;5034714;28;20026;-51
2023/11/12 10:14:29;;;;;;;3.33;1.45;;;19.70;90.90;;;;;;5033965;28;20007;-54
2023/11/12 10:17:06;;;;;;;3.70;1.80;;;19.70;90.00;;;;;;5034224;28;20068;-51
2023/11/12 10:19:31;;;;;;;4.03;1.63;;;19.00;90.50;;;;;;5033638;28;20486;-52
2023/11/12 10:22:00;;;;;;;3.42;1.70;;;19.00;90.80;;;;;;5033671;28;20075;-50
2023/11/12 10:24:27;;;;;;;5.28;1.90;;;19.10;91.20;;;;;;5033942;28;20505;-52
2023/11/12 10:27:00;;;;;;;1.83;1.13;;;19.60;90.00;;;;;;5033857;28;20155;-53
2023/11/12 10:29:27;;;;;;;3.92;1.67;;;20.50;89.10;;;;;;5032163;28;20448;-54
2023/11/12 10:31:52;;;;;;;2.75;1.33;;;21.20;84.60;;;;;;5034058;28;20033;-55
2023/11/12 10:34:19;;;;;;;2.97;1.60;;;20.40;84.20;;;;;;5033702;28;20083;-52
2023/11/12 10:37:04;;;;;;;4.07;1.50;;;20.00;86.80;;;;;;5033805;28;20033;-53
2023/11/12 10:39:34;;;;;;;2.25;1.45;;;19.80;87.90;;;;;;5033670;28;20017;-52
2023/11/12 10:42:00;;;;;;;4.25;1.67;;;20.30;85.90;;;;;;5033913;28;20021;-55
2023/11/12 10:44:26;;;;;;;2.20;1.40;;;20.00;84.70;;;;;;5033705;28;20119;-54
2023/11/12 10:46:53;;;;;;;3.13;1.90;;;19.70;86.30;;;;;;5032423;28;20498;-55
2023/11/12 10:49:20;;;;;;;3.63;1.40;;;18.80;89.20;;;;;;5033211;28;20052;-54
2023/11/12 10:51:48;;;;;;;4.50;1.63;;;18.40;90.20;;;;;;5033381;28;20580;-53
2023/11/12 10:54:15;;;;;;;2.78;1.50;;;18.40;90.30;;;;;;5033397;28;20037;-53
2023/11/12 10:56:43;;;;;;;4.80;1.58;;;18.70;90.40;;;;;;5033335;28;20041;-55
2023/11/12 10:59:11;;;;;;;3.25;1.52;;;18.40;90.50;;;;;;5032754;28;20049;-55
2023/11/12 11:01:37;;;;;;;;;;;18.70;88.80;;;;;;5033802;28;20470;-53
2023/11/12 11:04:05;;;;;;;2.67;1.40;;;19.40;88.50;;;;;;5033193;28;20003;-54
2023/11/12 11:06:31;;;;;;;4.03;1.25;;;20.20;86.30;;;;;;5032982;28;20053;-54
2023/11/12 11:08:57;;;;;;;4.03;1.33;;;20.70;83.30;;;;;;5032789;28;20069;-51
2023/11/12 11:11:24;;;;;;;1.95;1.17;;;20.90;84.00;;;;;;5033095;28;20052;-52
2023/11/12 11:13:49;;;;;;;5.05;2.33;;;21.10;82.70;;;;;;5031492;28;20038;-54
2023/11/12 11:16:45;;;;;;;2.20;1.27;;;21.90;78.80;;;;;;5032153;28;20029;-54
2023/11/12 11:19:11;;;;;;;2.85;1.20;;;23.50;75.40;;;;;;5032316;28;20038;-52
2023/11/12 11:21:36;;;;;;;2.45;1.30;;;24.00;72.90;;;;;;5032717;28;20540;-53
2023/11/12 11:24:02;;;;;;;2.35;1.30;;;23.70;70.80;;;;;;5032668;28;20112;-51
2023/11/12 11:26:30;;;;;;;2.25;1.20;;;22.50;72.30;;;;;;5032455;28;20041;-53
2023/11/12 11:29:04;;;;;;;2.15;1.10;;;21.10;75.60;;;;;;5031948;28;20061;-51
2023/11/12 11:31:53;;;;;;;3.80;1.30;;;19.50;80.10;;;;;;5032484;28;20021;-52
2023/11/12 11:34:19;;;;;;;;;;;18.20;85.10;;;;;;5032760;28;20049;-53
2023/11/12 11:37:01;;;;;;;4.05;1.20;;;18.10;86.50;;;;;;5032335;28;20358;-54
2023/11/12 11:39:28;;;;;;;2.33;1.13;;;18.30;86.40;;;;;;5031916;28;20052;-54
2023/11/12 11:41:54;;;;;;;2.63;1.20;;;18.40;84.20;;;;;;5032321;28;20504;-53
2023/11/12 11:47:13;;;;;;;3.58;1.42;;;17.90;87.30;;;;;;5032075;28;20107;-54
2023/11/12 11:49:39;;;;;;;2.15;1.00;;;17.70;87.10;;;;;;5031797;28;20042;-54
2023/11/12 11:52:07;;;;;;;2.10;1.00;;;17.70;88.20;;;;;;5031983;28;20041;-52
2023/11/12 11:54:33;;;;;;;2.97;0.98;;;18.40;87.00;;;;;;5032005;28;20034;-53
2023/11/12 11:57:01;;;;;;;2.22;0.98;;;17.70;86.00;;;;;;5032134;28;20033;-52
2023/11/12 11:59:30;;;;;;;2.08;0.80;;;17.10;88.70;;;;;;5030274;28;20033;-54
2023/11/12 12:01:59;;;;;;;2.72;1.20;;;16.50;90.90;;;;;;5031768;28;20384;-53
2023/11/12 12:04:24;;;;;;;2.13;1.23;;;16.30;91.00;;;;;;5030626;28;20033;-54
2023/11/12 12:06:51;;;;;;;4.70;1.45;;;16.10;91.60;;;;;;5031494;28;20075;-53
2023/11/12 12:09:17;;;;;;;2.33;1.20;;;16.30;92.20;;;;;;5031343;28;20048;-54
2023/11/12 12:11:48;;;;;;;5.15;1.10;;;16.80;91.10;;;;;;5030309;28;20037;-55
2023/11/12 12:14:15;;;;;;;2.75;1.00;;;17.30;89.10;;;;;;5031454;28;20055;-54
2023/11/12 12:16:45;;;;;;;4.93;1.17;;;17.20;89.30;;;;;;5031417;28;20366;-54
2023/11/12 12:19:28;;;;;;;0.70;0.52;;;17.70;89.30;;;;;;5030940;28;20030;-54
2023/11/12 12:21:55;;;;;;;2.35;0.85;;;19.10;83.60;;;;;;5031507;28;20494;-52
2023/11/12 12:24:23;;;;;;;3.30;0.90;;;20.30;79.90;;;;;;5031499;28;20425;-50
2023/11/12 12:26:49;;;;;;;3.17;1.13;;;20.30;78.20;;;;;;5031372;28;20048;-54
2023/11/12 12:29:21;;;;;;;2.20;0.82;;;20.60;77.60;;;;;;5030664;28;20121;-55
2023/11/12 12:31:48;;;;;;;1.42;0.80;;;21.00;76.50;;;;;;5031277;28;20095;-54
2023/11/12 12:34:16;;;;;;;2.97;1.15;;;21.40;75.80;;;;;;5030927;28;20551;-55
2023/11/12 12:37:03;;;;;;;5.05;1.50;;;21.50;75.80;;;;;;5031281;28;20026;-53
2023/11/12 12:39:52;;;;;;;4.13;1.40;;;21.80;73.80;;;;;;5030999;28;20055;-50
2023/11/12 12:42:23;;;;;;;2.78;1.42;;;22.40;72.00;;;;;;5030868;28;20505;-55
2023/11/12 12:44:52;;;;;;;4.18;1.33;;;21.80;72.20;;;;;;5031142;28;20406;-54
2023/11/12 12:47:41;;;;;;;4.82;1.40;;;21.10;75.20;;;;;;5031179;28;20429;-53
2023/11/12 12:50:16;;;;;;;4.68;2.20;;;20.20;76.50;;;;;;5030817;28;20034;-54
2023/11/12 12:52:46;;;;;;;4.93;2.00;;;20.10;77.90;;;;;;5031281;28;20045;-50